Time;durP1;ratioP1;P1;durP2;ratioP2;P2;SDS_P1;SDS_P2;PMS_P1;PMS_P2;Temp;Humidity;BMP_temperature;BMP_pressure;BME280_temperature;BME280_humidity;BME280_pressure;Samples;Min_cycle;Max_cycle;Signal;HPM_P1;HPM_P2
2021/12/23 00:01:59;;;;;;;17.20;4.80;;;;;;;-5.75;68.81;146248.66;1758396;80;21017;-58
2021/12/23 00:04:25;;;;;;;15.03;5.20;;;;;;;-5.77;68.83;146244.84;1757105;80;21046;-59
2021/12/23 00:06:52;;;;;;;14.07;5.40;;;;;;;-5.77;68.91;146243.53;1749566;80;21070;-59
2021/12/23 00:09:20;;;;;;;13.33;4.93;;;;;;;-5.78;68.81;146240.97;1750325;80;21048;-59
2021/12/23 00:11:48;;;;;;;23.07;5.77;;;;;;;-5.81;68.78;146234.61;1751741;80;22375;-60
2021/12/23 00:14:14;;;;;;;18.13;6.17;;;;;;;-5.83;68.82;146229.48;1753942;80;21028;-58
2021/12/23 00:17:06;;;;;;;16.10;5.50;;;;;;;-5.84;68.86;146226.94;1748381;80;21046;-59
2021/12/23 00:24:40;;;;;;;16.17;5.93;;;;;;;-5.94;68.62;146201.28;1755296;80;21137;-59
2021/12/23 00:27:08;;;;;;;15.97;5.33;;;;;;;-5.96;68.63;146197.48;1748752;80;21132;-59
2021/12/23 00:29:35;;;;;;;8.70;4.70;;;;;;;-5.96;68.58;146197.48;1766483;79;21088;-58
2021/12/23 00:32:05;;;;;;;17.13;5.30;;;;;;;-5.97;68.53;146193.63;1770915;79;20982;-58
2021/12/23 00:34:32;;;;;;;13.40;5.17;;;;;;;-5.99;68.53;146189.75;1774072;79;21059;-59
2021/12/23 00:37:01;;;;;;;16.10;5.53;;;;;;;-6.00;68.53;146185.94;1771242;79;21125;-59
2021/12/23 00:39:28;;;;;;;22.90;4.93;;;;;;;-6.02;68.46;146180.88;1769627;79;21063;-59
2021/12/23 00:42:05;;;;;;;18.70;5.50;;;;;;;-6.05;68.40;146175.75;1765055;79;21549;-63
2021/12/23 00:44:25;;;;;;;15.97;5.63;;;;;;;-6.07;68.47;146169.34;1778927;79;21500;-61
2021/12/23 00:46:52;;;;;;;21.00;5.80;;;;;;;-6.10;68.55;146162.91;1767798;79;20981;-62
2021/12/23 00:49:19;;;;;;;17.17;5.70;;;;;;;-6.10;68.64;146162.91;1780519;79;21134;-61
2021/12/23 00:51:46;;;;;;;26.43;5.93;;;;;;;-6.10;68.66;146162.91;1769129;79;21003;-61
2021/12/23 00:54:12;;;;;;;28.07;6.17;;;;;;;-6.14;68.60;146152.69;1763522;79;21024;-61
2021/12/23 00:56:40;;;;;;;17.17;5.53;;;;;;;-6.15;68.71;146148.88;1768253;79;21893;-62
2021/12/23 00:59:08;;;;;;;21.07;6.00;;;;;;;-6.16;68.79;146146.31;1772516;79;20954;-62
2021/12/23 01:01:35;;;;;;;15.00;5.60;;;;;;;-6.17;68.89;146145.02;1769760;79;21128;-62
2021/12/23 01:04:02;;;;;;;16.10;6.40;;;;;;;-6.14;68.95;146152.69;1768372;79;21036;-61
2021/12/23 01:06:28;;;;;;;15.83;6.00;;;;;;;-6.14;69.02;146152.69;1765643;79;21039;-62
2021/12/23 01:08:55;;;;;;;15.33;6.37;;;;;;;-6.14;69.10;146151.44;1772083;79;21122;-62
2021/12/23 01:11:24;;;;;;;19.17;6.33;;;;;;;-6.16;69.12;146147.56;1770608;79;21523;-58
2021/12/23 01:14:03;;;;;;;22.07;6.57;;;;;;;-6.19;69.12;146141.20;1764011;79;21737;-58
2021/12/23 01:17:11;;;;;;;27.23;7.47;;;;;;;-6.17;69.14;146145.02;1770959;79;21004;-58
2021/12/23 01:18:57;;;;;;;21.83;7.30;;;;;;;-6.18;69.10;146142.45;1757222;79;21125;-58
2021/12/23 01:21:24;;;;;;;22.53;7.23;;;;;;;-6.19;69.10;146139.89;1764315;79;21021;-59
2021/12/23 01:23:53;;;;;;;20.20;7.07;;;;;;;-6.23;69.09;146130.92;1766732;79;21362;-58
2021/12/23 01:26:22;;;;;;;21.27;6.20;;;;;;;-6.24;69.19;146127.09;1765377;79;21509;-60
2021/12/23 01:28:56;;;;;;;21.13;6.87;;;;;;;-6.25;69.25;146124.55;1761040;79;21426;-59
2021/12/23 01:31:27;;;;;;;13.17;5.47;;;;;;;-6.28;69.44;146118.12;1753059;80;21013;-59
2021/12/23 01:33:53;;;;;;;13.67;5.70;;;;;;;-6.31;69.78;146109.16;1749454;80;21086;-61
2021/12/23 01:36:20;;;;;;;25.67;6.87;;;;;;;-6.34;70.17;146104.03;1752948;80;21102;-62
2021/12/23 01:38:47;;;;;;;19.73;5.87;;;;;;;-6.35;70.45;146100.22;1758520;80;21489;-61
2021/12/23 01:41:15;;;;;;;32.23;6.67;;;;;;;-6.38;70.84;146093.81;1752142;80;21052;-59
2021/12/23 01:43:42;;;;;;;21.57;6.50;;;;;;;-6.40;71.08;146087.44;1757073;80;21676;-59
2021/12/23 01:46:08;;;;;;;20.93;6.60;;;;;;;-6.43;71.35;146081.02;1747016;80;21032;-59
2021/12/23 01:48:35;;;;;;;15.77;6.43;;;;;;;-6.43;71.61;146081.02;1753612;80;21506;-60
2021/12/23 01:51:02;;;;;;;18.23;5.67;;;;;;;-6.43;71.94;146081.02;1752865;80;21085;-59
2021/12/23 01:53:29;;;;;;;18.67;6.47;;;;;;;-6.44;72.11;146078.47;1751039;80;21072;-59
2021/12/23 01:55:55;;;;;;;15.60;6.50;;;;;;;-6.44;72.36;146078.47;1750140;80;21561;-59
2021/12/23 01:58:22;;;;;;;17.40;7.07;;;;;;;-6.45;72.49;146075.91;1757572;80;21066;-58
2021/12/23 02:00:51;;;;;;;21.87;7.10;;;;;;;-6.45;72.72;146075.91;1756111;80;20993;-58
2021/12/23 02:03:18;;;;;;;22.20;7.17;;;;;;;-6.43;72.92;146079.72;1745090;80;21046;-60
2021/12/23 02:05:45;;;;;;;25.40;7.63;;;;;;;-6.41;73.15;146084.83;1750498;80;21070;-59
2021/12/23 02:08:13;;;;;;;20.07;8.47;;;;;;;-6.41;73.27;146086.13;1748561;80;21040;-60
2021/12/23 02:10:42;;;;;;;20.03;7.30;;;;;;;-6.44;73.29;146078.47;1753896;80;20969;-60
2021/12/23 02:13:09;;;;;;;19.50;7.70;;;;;;;-6.44;73.43;146077.16;1744216;80;21471;-59
2021/12/23 02:15:37;;;;;;;18.23;7.30;;;;;;;-6.45;73.49;146075.91;1748721;80;21187;-63
2021/12/23 02:18:04;;;;;;;16.53;7.17;;;;;;;-6.49;73.54;146066.94;1747823;80;21092;-58
2021/12/23 02:20:33;;;;;;;19.30;6.37;;;;;;;-6.52;73.62;146059.25;1753418;80;21060;-58
2021/12/23 02:23:00;;;;;;;19.57;7.03;;;;;;;-6.57;73.69;146046.47;1746612;80;21533;-61
2021/12/23 02:25:28;;;;;;;24.87;7.47;;;;;;;-6.60;73.67;146037.50;1719205;80;21080;-60
2021/12/23 02:27:55;;;;;;;23.07;6.97;;;;;;;-6.70;73.74;146013.19;1750387;80;21153;-60
2021/12/23 02:30:25;;;;;;;16.27;6.47;;;;;;;-6.78;73.93;145993.98;1749308;80;21499;-61
2021/12/23 02:32:52;;;;;;;20.07;7.13;;;;;;;-6.84;74.06;145978.64;1751616;80;21096;-60
2021/12/23 02:35:20;;;;;;;14.67;6.30;;;;;;;-6.92;74.29;145960.75;1751973;80;20964;-60
2021/12/23 02:37:47;;;;;;;18.77;6.73;;;;;;;-6.97;74.52;145947.92;1752341;80;21085;-60
2021/12/23 02:40:40;;;;;;;15.17;6.60;;;;;;;-7.02;74.71;145933.88;1756660;80;21833;-61
2021/12/23 02:43:23;;;;;;;14.83;6.07;;;;;;;-7.07;74.98;145923.66;1725747;82;21536;-60
2021/12/23 02:45:54;;;;;;;26.20;7.33;;;;;;;-7.08;75.25;145919.81;1746057;80;21097;-60
2021/12/23 02:48:34;;;;;;;24.60;6.67;;;;;;;-7.13;75.48;145907.02;1752885;80;21025;-61
2021/12/23 02:51:04;;;;;;;22.07;6.40;;;;;;;-7.13;75.64;145907.02;1757842;80;21052;-62
2021/12/23 02:53:33;;;;;;;28.23;6.63;;;;;;;-7.17;75.70;145898.06;1752883;80;21517;-62
2021/12/23 02:56:02;;;;;;;20.70;6.27;;;;;;;-7.20;75.86;145891.64;1755651;80;21060;-61
2021/12/23 02:58:29;;;;;;;17.97;6.57;;;;;;;-7.20;75.99;145891.64;1760301;80;21431;-60
2021/12/23 03:00:56;;;;;;;17.13;6.77;;;;;;;-7.20;76.16;145891.64;1750937;80;21053;-60
2021/12/23 03:03:23;;;;;;;22.83;7.57;;;;;;;-7.19;76.27;145894.20;1752736;80;21077;-61
2021/12/23 03:05:56;;;;;;;24.87;7.63;;;;;;;-7.17;76.34;145898.06;1750877;80;21136;-61
2021/12/23 03:08:41;;;;;;;24.37;6.60;;;;;;;-7.16;76.39;145899.36;1747967;80;21090;-58
2021/12/23 03:11:11;;;;;;;25.67;6.73;;;;;;;-7.16;76.47;145899.36;1752736;80;21005;-58
2021/12/23 03:13:37;;;;;;;13.63;6.47;;;;;;;-7.16;76.37;145899.36;1756434;80;21061;-57
2021/12/23 03:16:05;;;;;;;15.77;6.50;;;;;;;-7.20;76.38;145890.39;1749047;80;21413;-58
2021/12/23 03:18:32;;;;;;;17.27;6.47;;;;;;;-7.24;76.36;145881.41;1754724;80;21156;-59
2021/12/23 03:20:59;;;;;;;13.43;6.50;;;;;;;-7.27;76.42;145873.75;1760916;80;21041;-58
2021/12/23 03:23:26;;;;;;;12.10;6.10;;;;;;;-7.31;76.46;145862.23;1749780;80;21041;-59
2021/12/23 03:25:52;;;;;;;16.27;5.93;;;;;;;-7.34;76.53;145857.13;1754325;80;21464;-58
2021/12/23 03:28:20;;;;;;;12.40;5.50;;;;;;;-7.37;76.50;145849.45;1755623;80;21087;-59
2021/12/23 03:30:47;;;;;;;12.53;5.80;;;;;;;-7.42;76.48;145836.67;1753629;80;21804;-59
2021/12/23 03:33:14;;;;;;;21.60;5.90;;;;;;;-7.48;76.54;145821.34;1752683;80;21673;-59
2021/12/23 03:35:40;;;;;;;18.93;6.50;;;;;;;-7.58;76.55;145797.05;1755614;80;21082;-59
2021/12/23 03:38:07;;;;;;;23.57;6.67;;;;;;;-7.65;76.82;145779.11;1749952;80;21501;-59
2021/12/23 03:40:34;;;;;;;15.43;6.20;;;;;;;-7.73;76.93;145759.98;1753663;80;21064;-59
2021/12/23 03:43:01;;;;;;;12.90;5.33;;;;;;;-7.80;77.11;145743.36;1744511;80;21111;-59
2021/12/23 03:45:27;;;;;;;15.87;5.67;;;;;;;-7.91;77.49;145715.22;1752331;80;21015;-58
2021/12/23 03:47:54;;;;;;;12.37;5.47;;;;;;;-8.00;77.60;145692.22;1750085;80;21029;-59
2021/12/23 03:50:22;;;;;;;12.00;4.77;;;;;;;-8.10;77.83;145667.94;1748885;80;21347;-59
2021/12/23 03:52:49;;;;;;;18.23;6.57;;;;;;;-8.18;78.11;145648.77;1754242;80;21068;-58
2021/12/23 03:55:16;;;;;;;15.80;5.87;;;;;;;-8.25;78.30;145630.89;1755164;80;21506;-58
2021/12/23 03:57:44;;;;;;;16.07;5.30;;;;;;;-8.30;78.56;145618.08;1752054;80;21043;-59
2021/12/23 04:00:14;;;;;;;17.40;5.60;;;;;;;-8.36;78.88;145604.06;1750923;80;21034;-59
2021/12/23 04:02:41;;;;;;;11.30;5.37;;;;;;;-8.40;79.01;145593.80;1749962;80;21530;-62
2021/12/23 04:05:10;;;;;;;13.47;5.00;;;;;;;-8.44;79.19;145584.89;1751928;80;21065;-61
2021/12/23 04:07:41;;;;;;;12.50;4.90;;;;;;;-8.49;79.26;145572.12;1754956;80;21123;-62
2021/12/23 04:10:09;;;;;;;13.53;5.57;;;;;;;-8.54;79.46;145559.36;1755417;80;21049;-62
2021/12/23 04:12:36;;;;;;;11.20;4.87;;;;;;;-8.59;79.55;145546.59;1758621;80;21052;-60
2021/12/23 04:15:04;;;;;;;12.53;5.47;;;;;;;-8.65;79.75;145532.53;1746204;80;21054;-62
2021/12/23 04:17:31;;;;;;;14.13;5.73;;;;;;;-8.69;79.92;145523.63;1750664;80;21057;-62
2021/12/23 04:20:15;;;;;;;15.80;5.70;;;;;;;-8.71;80.01;145518.53;1759908;80;21556;-60
2021/12/23 04:22:34;;;;;;;10.00;4.47;;;;;;;-8.73;80.20;145513.42;1746633;80;21113;-62
2021/12/23 04:25:00;;;;;;;14.93;6.00;;;;;;;-8.76;80.33;145505.72;1752991;80;21033;-61
2021/12/23 04:27:27;;;;;;;13.13;4.77;;;;;;;-8.80;80.35;145495.50;1751844;80;21099;-61
2021/12/23 04:29:54;;;;;;;14.07;5.20;;;;;;;-8.82;80.55;145490.41;1756978;80;21056;-62
2021/12/23 04:32:20;;;;;;;18.10;5.07;;;;;;;-8.84;80.65;145486.59;1767762;80;21617;-61
2021/12/23 04:34:47;;;;;;;13.80;5.30;;;;;;;-8.84;80.63;145485.30;1773069;80;21073;-61
2021/12/23 04:37:14;;;;;;;15.70;5.13;;;;;;;-8.85;80.66;145482.75;1758125;80;21004;-61
2021/12/23 04:39:40;;;;;;;12.83;5.00;;;;;;;-8.88;80.57;145475.09;1764702;80;21065;-62
2021/12/23 04:42:08;;;;;;;14.07;6.33;;;;;;;-8.90;80.57;145469.98;1762967;80;21064;-62
2021/12/23 04:44:35;;;;;;;18.10;5.20;;;;;;;-8.90;80.61;145469.98;1754050;80;21483;-62
2021/12/23 04:47:01;;;;;;;19.83;5.70;;;;;;;-8.90;80.67;145469.98;1756746;80;21402;-62
2021/12/23 04:49:28;;;;;;;15.20;4.80;;;;;;;-8.89;80.68;145473.80;1760170;80;21329;-62
2021/12/23 04:51:55;;;;;;;12.67;4.90;;;;;;;-8.89;80.59;145472.53;1768806;80;21596;-61
2021/12/23 04:54:21;;;;;;;10.03;4.60;;;;;;;-8.94;80.48;145462.33;1768638;80;21061;-61
2021/12/23 04:56:48;;;;;;;17.07;5.60;;;;;;;-9.00;80.59;145446.97;1762550;80;21843;-62
2021/12/23 04:59:17;;;;;;;9.33;4.43;;;;;;;-9.04;80.67;145436.78;1766199;80;21116;-62
2021/12/23 05:01:43;;;;;;;10.23;4.43;;;;;;;-9.06;80.82;145431.67;1761281;80;21466;-61
2021/12/23 05:04:10;;;;;;;12.83;5.40;;;;;;;-9.11;80.86;145418.91;1765101;80;21060;-61
2021/12/23 05:06:37;;;;;;;11.20;4.70;;;;;;;-9.15;80.99;145408.70;1762005;80;21083;-61
2021/12/23 05:09:04;;;;;;;11.07;4.50;;;;;;;-9.17;81.12;145403.56;1766903;80;22353;-62
2021/12/23 05:11:30;;;;;;;11.03;5.00;;;;;;;-9.21;81.23;145395.91;1764867;80;21297;-62
2021/12/23 05:13:57;;;;;;;12.23;5.00;;;;;;;-9.24;81.36;145388.25;1755016;80;20995;-62
2021/12/23 05:16:25;;;;;;;12.63;4.27;;;;;;;-9.26;81.48;145383.16;1762483;80;21064;-62
2021/12/23 05:18:52;;;;;;;17.40;5.33;;;;;;;-9.29;81.58;145375.50;1756984;80;21536;-63
2021/12/23 05:21:19;;;;;;;13.33;4.47;;;;;;;-9.31;81.70;145370.39;1761901;80;21556;-62
2021/12/23 05:23:46;;;;;;;16.30;4.97;;;;;;;-9.33;81.95;145365.30;1763084;80;21039;-61
2021/12/23 05:26:12;;;;;;;10.67;4.80;;;;;;;-9.35;81.91;145361.44;1753674;80;21052;-61
2021/12/23 05:28:40;;;;;;;18.43;5.63;;;;;;;-9.40;82.31;145348.69;1766704;79;21114;-62
2021/12/23 05:31:06;;;;;;;18.73;6.27;;;;;;;-9.42;82.27;145342.28;1761251;80;21048;-61
2021/12/23 05:33:33;;;;;;;13.10;5.80;;;;;;;-9.44;82.19;145337.19;1761025;80;21129;-61
2021/12/23 05:36:01;;;;;;;11.87;5.00;;;;;;;-9.46;82.39;145333.39;1751120;80;21009;-61
2021/12/23 05:38:28;;;;;;;15.27;5.40;;;;;;;-9.47;82.56;145329.53;1755835;80;21064;-61
2021/12/23 05:40:54;;;;;;;12.97;4.00;;;;;;;-9.50;82.59;145324.44;1756519;80;20970;-61
2021/12/23 05:43:21;;;;;;;17.07;6.33;;;;;;;-9.54;82.94;145312.94;1756898;80;21107;-61
2021/12/23 05:45:47;;;;;;;11.43;5.00;;;;;;;-9.58;83.01;145302.73;1749613;80;21517;-61
2021/12/23 05:48:14;;;;;;;17.83;5.90;;;;;;;-9.59;83.14;145300.19;1749387;80;21061;-62
2021/12/23 05:50:41;;;;;;;14.50;5.50;;;;;;;-9.61;83.33;145296.39;1762489;80;21565;-62
2021/12/23 05:53:09;;;;;;;26.17;6.23;;;;;;;-9.60;83.53;145298.94;1749354;80;21101;-62
2021/12/23 05:55:36;;;;;;;15.37;4.93;;;;;;;-9.58;83.64;145302.73;1763159;80;21077;-61
2021/12/23 05:58:03;;;;;;;9.57;4.40;;;;;;;-9.59;83.71;145301.48;1758500;80;21124;-63
2021/12/23 06:00:32;;;;;;;18.40;6.73;;;;;;;-9.59;83.68;145301.48;1763582;80;21060;-62
2021/12/23 06:03:00;;;;;;;16.10;4.93;;;;;;;-9.55;83.67;145310.39;1731968;80;21049;-62
2021/12/23 06:05:27;;;;;;;18.90;6.93;;;;;;;-9.50;83.55;145324.44;1748891;80;21116;-63
2021/12/23 06:07:54;;;;;;;15.77;6.03;;;;;;;-9.48;83.31;145328.28;1769516;80;21118;-62
2021/12/23 06:10:21;;;;;;;18.87;7.27;;;;;;;-9.46;83.16;145332.09;1752403;80;21210;-62
2021/12/23 06:12:49;;;;;;;22.73;9.10;;;;;;;-9.44;82.81;145338.48;1757484;80;20960;-62
2021/12/23 06:15:15;;;;;;;23.80;8.17;;;;;;;-9.42;82.73;145342.28;1755041;80;21029;-62
2021/12/23 06:17:43;;;;;;;23.47;6.20;;;;;;;-9.40;82.65;145347.39;1763899;80;21176;-62
2021/12/23 06:20:12;;;;;;;24.60;8.43;;;;;;;-9.38;82.44;145353.78;1749081;80;21055;-62
2021/12/23 06:22:39;;;;;;;24.63;8.90;;;;;;;-9.37;82.43;145355.09;1762009;80;21109;-61
2021/12/23 06:25:08;;;;;;;29.83;8.17;;;;;;;-9.37;82.47;145355.09;1750001;80;21042;-61
2021/12/23 06:27:35;;;;;;;33.20;9.60;;;;;;;-9.35;82.60;145361.44;1754520;80;21722;-60
2021/12/23 06:30:03;;;;;;;25.97;8.90;;;;;;;-9.30;82.62;145371.66;1764235;80;21099;-59
2021/12/23 06:32:31;;;;;;;24.27;7.87;;;;;;;-9.25;82.54;145384.45;1767571;79;21331;-59
2021/12/23 06:34:58;;;;;;;26.27;8.47;;;;;;;-9.22;82.51;145392.09;1745737;80;21834;-59
2021/12/23 06:37:25;;;;;;;37.53;10.40;;;;;;;-9.17;82.49;145403.56;1752177;80;21091;-61
2021/12/23 06:39:51;;;;;;;34.57;9.80;;;;;;;-9.14;82.38;145412.50;1751218;80;21078;-58
2021/12/23 06:42:21;;;;;;;34.37;9.77;;;;;;;-9.09;82.51;145425.27;1755717;80;21064;-59
2021/12/23 06:44:47;;;;;;;26.90;8.53;;;;;;;-9.01;82.38;145444.42;1765142;80;21698;-60
2021/12/23 06:47:13;;;;;;;24.50;8.40;;;;;;;-8.96;81.59;145457.19;1755914;80;21165;-59
2021/12/23 06:49:40;;;;;;;18.43;7.03;;;;;;;-8.96;81.17;145457.19;1750603;80;21070;-59
2021/12/23 06:52:07;;;;;;;21.30;6.53;;;;;;;-8.95;80.71;145459.78;1753246;80;21074;-61
2021/12/23 06:54:34;;;;;;;31.47;10.63;;;;;;;-8.94;80.79;145462.33;1749321;80;21652;-59
2021/12/23 06:57:01;;;;;;;30.87;9.03;;;;;;;-8.94;80.71;145461.03;1753670;80;21147;-59
2021/12/23 06:59:28;;;;;;;22.47;7.67;;;;;;;-8.94;80.67;145462.33;1755257;80;21393;-59
2021/12/23 07:02:14;;;;;;;24.30;7.57;;;;;;;-8.88;80.72;145475.09;1756873;80;21511;-60
2021/12/23 07:04:43;;;;;;;18.93;7.00;;;;;;;-8.85;80.34;145482.75;1755692;80;21074;-58
2021/12/23 07:07:13;;;;;;;22.87;6.50;;;;;;;-8.86;80.27;145480.20;1760061;80;21115;-60
2021/12/23 07:09:42;;;;;;;20.90;8.20;;;;;;;-8.86;80.27;145480.20;1753332;80;21108;-60
2021/12/23 07:12:12;;;;;;;22.63;8.70;;;;;;;-8.86;80.41;145480.20;1756939;80;21144;-59
2021/12/23 07:14:39;;;;;;;21.07;8.37;;;;;;;-8.79;80.72;145498.06;1753836;80;21272;-60
2021/12/23 07:17:07;;;;;;;19.77;7.53;;;;;;;-8.72;80.71;145515.97;1752394;80;21095;-62
2021/12/23 07:19:35;;;;;;;21.43;8.43;;;;;;;-8.66;80.74;145529.98;1748089;80;21500;-62
2021/12/23 07:22:03;;;;;;;19.13;7.40;;;;;;;-8.64;80.65;145536.39;1756190;80;21123;-62
2021/12/23 07:24:30;;;;;;;16.80;6.13;;;;;;;-8.64;80.67;145536.39;1763926;80;21490;-62
2021/12/23 07:29:28;;;;;;;19.53;7.27;;;;;;;-8.57;80.50;145551.70;1761561;80;21299;-63
2021/12/23 07:31:57;;;;;;;23.13;8.43;;;;;;;-8.55;80.54;145556.81;1734067;81;21083;-61
2021/12/23 07:34:24;;;;;;;19.87;8.27;;;;;;;-8.51;80.64;145567.02;1740202;81;21525;-61
2021/12/23 07:36:51;;;;;;;24.93;8.47;;;;;;;-8.43;80.74;145587.44;1729164;82;21141;-62
2021/12/23 07:39:17;;;;;;;24.90;7.70;;;;;;;-8.35;80.68;145607.88;1723692;81;21096;-61
2021/12/23 07:41:44;;;;;;;18.93;6.37;;;;;;;-8.30;80.55;145618.08;1726346;81;21662;-60
2021/12/23 07:44:20;;;;;;;18.57;6.47;;;;;;;-8.31;79.78;145615.53;1726862;82;21076;-60
2021/12/23 07:46:43;;;;;;;19.17;7.53;;;;;;;-8.34;79.79;145610.42;1727666;81;21144;-59
2021/12/23 07:49:10;;;;;;;24.20;7.13;;;;;;;-8.35;79.79;145607.88;1739820;80;21131;-59
2021/12/23 07:51:37;;;;;;;21.50;7.27;;;;;;;-8.34;79.68;145609.17;1735048;81;21115;-60
2021/12/23 07:54:04;;;;;;;23.73;8.03;;;;;;;-8.28;79.96;145623.23;1703773;81;21103;-60
2021/12/23 07:56:31;;;;;;;15.37;6.17;;;;;;;-8.24;79.79;145633.44;1738418;81;21972;-59
2021/12/23 07:58:57;;;;;;;21.13;8.47;;;;;;;-8.19;79.47;145646.22;1744934;81;21102;-59
2021/12/23 08:01:26;;;;;;;19.57;7.03;;;;;;;-8.13;79.19;145661.53;1751938;80;21060;-60
2021/12/23 08:03:53;;;;;;;27.83;7.63;;;;;;;-8.07;78.93;145676.91;1759509;80;21056;-59
2021/12/23 08:06:20;;;;;;;24.37;7.30;;;;;;;-8.02;79.09;145688.37;1752807;80;21029;-60
2021/12/23 08:08:47;;;;;;;28.43;10.10;;;;;;;-7.96;78.84;145702.44;1762740;80;21143;-58
2021/12/23 08:11:14;;;;;;;20.93;7.17;;;;;;;-7.89;78.92;145719.06;1727142;82;21093;-60
2021/12/23 08:13:40;;;;;;;20.37;7.80;;;;;;;-7.81;78.15;145740.80;1727915;81;21782;-59
2021/12/23 08:16:07;;;;;;;32.70;10.73;;;;;;;-7.74;77.74;145757.38;1733999;80;21077;-59
2021/12/23 08:18:34;;;;;;;24.63;7.33;;;;;;;-7.67;77.63;145774.00;1735089;81;21099;-60
2021/12/23 08:21:01;;;;;;;22.30;8.20;;;;;;;-7.59;77.86;145794.50;1735207;81;21083;-60
2021/12/23 08:23:28;;;;;;;32.37;10.83;;;;;;;-7.50;78.00;145817.48;1749708;80;21799;-59
2021/12/23 08:25:55;;;;;;;22.00;7.47;;;;;;;-7.42;77.98;145835.38;1734459;80;21124;-59
2021/12/23 08:28:22;;;;;;;22.17;9.40;;;;;;;-7.39;77.52;145843.09;1762658;80;21334;-60
2021/12/23 08:30:49;;;;;;;28.30;8.90;;;;;;;-7.37;77.38;145848.20;1765371;79;21080;-62
2021/12/23 08:33:16;;;;;;;30.13;9.60;;;;;;;-7.34;77.29;145855.86;1758494;80;21063;-62
2021/12/23 08:35:43;;;;;;;21.50;8.03;;;;;;;-7.32;77.35;145859.67;1761710;80;21083;-62
2021/12/23 08:38:11;;;;;;;27.40;9.43;;;;;;;-7.30;76.88;145864.78;1764447;80;22647;-62
2021/12/23 08:40:38;;;;;;;26.43;9.93;;;;;;;-7.25;76.66;145878.86;1767184;80;21108;-62
2021/12/23 08:43:05;;;;;;;17.43;6.63;;;;;;;-7.17;76.36;145896.80;1752050;79;21087;-63
2021/12/23 08:45:34;;;;;;;23.30;7.37;;;;;;;-7.11;75.77;145912.13;1774936;79;21106;-62
2021/12/23 08:48:00;;;;;;;16.77;6.10;;;;;;;-7.08;75.07;145919.81;1783041;79;21087;-63
2021/12/23 08:50:29;;;;;;;37.43;9.87;;;;;;;-7.07;74.59;145923.66;1774986;79;21803;-61
2021/12/23 08:52:57;;;;;;;14.73;6.03;;;;;;;-7.07;74.32;145922.36;1777701;79;21085;-62
2021/12/23 08:55:27;;;;;;;13.40;5.13;;;;;;;-7.02;72.42;145933.88;1758050;80;21096;-63
2021/12/23 08:57:55;;;;;;;22.87;7.60;;;;;;;-7.05;71.41;145927.47;1755640;80;21266;-61
2021/12/23 09:00:22;;;;;;;31.90;9.83;;;;;;;-7.11;71.15;145912.13;1756997;80;21068;-62
2021/12/23 09:02:49;;;;;;;24.67;8.40;;;;;;;-7.11;71.41;145912.13;1750378;80;21138;-61
2021/12/23 09:05:19;;;;;;;14.50;6.17;;;;;;;-7.08;71.22;145919.81;1781227;79;21071;-62
2021/12/23 09:07:47;;;;;;;14.97;6.10;;;;;;;-7.07;70.67;145922.36;1771171;79;21102;-63
2021/12/23 09:10:15;;;;;;;17.83;7.93;;;;;;;-7.10;69.96;145914.69;1748048;80;21087;-62
2021/12/23 09:12:43;;;;;;;20.00;7.23;;;;;;;-7.12;70.57;145910.83;1756504;79;21108;-63
2021/12/23 09:15:10;;;;;;;21.67;7.33;;;;;;;-7.09;70.37;145917.25;1760457;79;22364;-63
2021/12/23 09:17:38;;;;;;;13.40;6.50;;;;;;;-7.06;69.95;145926.22;1774127;79;21075;-61
2021/12/23 09:20:07;;;;;;;14.30;5.83;;;;;;;-7.05;69.70;145928.78;1765871;80;21076;-61
2021/12/23 09:22:34;;;;;;;15.37;6.53;;;;;;;-7.09;69.75;145917.25;1762025;80;21463;-62
2021/12/23 09:25:07;;;;;;;28.83;7.43;;;;;;;-7.07;70.25;145922.36;1774148;80;21111;-63
2021/12/23 09:27:40;;;;;;;21.93;7.07;;;;;;;-6.96;70.26;145950.53;1759280;80;21203;-62
2021/12/23 09:32:53;;;;;;;21.10;6.03;;;;;;;-6.78;69.58;145993.98;1747572;81;22232;-63
2021/12/23 09:35:23;;;;;;;13.80;5.40;;;;;;;-6.71;69.12;146011.94;1745825;80;21121;-63
2021/12/23 09:37:51;;;;;;;15.83;6.20;;;;;;;-6.65;68.99;146027.27;1751108;79;21137;-63
2021/12/23 09:40:18;;;;;;;16.97;6.57;;;;;;;-6.54;68.64;146054.14;1738601;80;23470;-62
2021/12/23 09:42:46;;;;;;;22.17;8.10;;;;;;;-6.52;67.29;146057.95;1740157;80;21114;-62
2021/12/23 09:45:17;;;;;;;19.20;6.27;;;;;;;-6.57;67.20;146046.47;1756195;79;21457;-63
2021/12/23 09:47:42;;;;;;;13.63;5.60;;;;;;;-6.54;67.29;146052.84;1749013;79;21058;-61
2021/12/23 09:50:11;;;;;;;17.43;6.60;;;;;;;-6.48;67.34;146068.23;1742090;80;21102;-62
2021/12/23 09:52:47;;;;;;;11.80;5.20;;;;;;;-6.43;67.09;146081.02;1742962;81;21118;-63
2021/12/23 09:55:18;;;;;;;14.10;5.33;;;;;;;-6.38;67.15;146092.55;1746121;80;21623;-63
2021/12/23 09:57:47;;;;;;;19.80;6.53;;;;;;;-6.35;66.74;146101.47;1746271;81;21074;-63
2021/12/23 10:00:17;;;;;;;15.43;5.93;;;;;;;-6.29;66.76;146114.31;1759709;80;21059;-61
2021/12/23 10:02:44;;;;;;;14.77;5.33;;;;;;;-6.23;66.57;146129.66;1732544;81;21134;-62
2021/12/23 10:05:16;;;;;;;12.87;5.47;;;;;;;-6.24;65.95;146127.09;1742559;81;21102;-62
2021/12/23 10:07:45;;;;;;;14.23;6.63;;;;;;;-6.28;65.85;146116.88;1746368;80;21427;-61
2021/12/23 10:10:18;;;;;;;16.23;5.90;;;;;;;-6.31;65.63;146109.16;1740336;81;21134;-61
2021/12/23 10:38:10;;;;;;;15.93;5.40;;;;;;;-6.03;65.52;146179.56;1753474;79;21071;-60
2021/12/23 10:40:45;;;;;;;14.33;4.83;;;;;;;-5.98;64.90;146191.06;1736403;81;21130;-60
2021/12/23 10:43:31;;;;;;;24.87;7.77;;;;;;;-5.93;64.73;146203.86;1749521;81;21018;-62
2021/12/23 10:46:09;;;;;;;24.43;5.37;;;;;;;-5.88;64.50;146215.39;1741059;80;21218;-62
2021/12/23 10:48:55;;;;;;;14.30;5.63;;;;;;;-5.85;64.50;146224.37;1754138;80;21778;-62
2021/12/23 10:51:20;;;;;;;19.37;6.80;;;;;;;-5.84;64.10;146225.62;1756565;79;21053;-61
2021/12/23 10:59:22;;;;;;;9.57;4.47;;;;;;;-5.81;63.54;146234.61;1755416;79;21144;-61
2021/12/23 11:02:22;;;;;;;24.70;4.83;;;;;;;-5.78;63.68;146242.28;1768584;80;21124;-62
2021/12/23 11:05:13;;;;;;;13.50;6.13;;;;;;;-5.69;63.64;146262.75;1765399;80;21063;-61
2021/12/23 11:07:55;;;;;;;36.53;8.83;;;;;;;-5.68;62.47;146265.31;1735898;79;21472;-61
2021/12/23 11:10:25;;;;;;;17.03;5.70;;;;;;;-5.78;62.58;146242.28;1765192;79;21028;-62
2021/12/23 11:30:26;;;;;;;21.60;5.97;;;;;;;-5.79;61.58;146238.42;1771100;79;21612;-61
2021/12/23 11:37:50;;;;;;;13.97;4.30;;;;;;;-5.77;62.09;146244.84;1758175;79;21520;-60
2021/12/23 11:40:24;;;;;;;14.67;4.30;;;;;;;-5.67;62.03;146269.17;1755872;79;21686;-60
2021/12/23 11:43:02;;;;;;;14.43;5.50;;;;;;;-5.63;61.55;146278.16;1731107;80;21048;-59
2021/12/23 11:45:09;;;;;;;12.50;5.37;;;;;;;-5.63;61.43;146278.16;1722173;81;21031;-60
2021/12/23 11:47:39;;;;;;;24.20;5.17;;;;;;;-5.62;61.48;146280.72;1757018;80;21106;-57
2021/12/23 11:50:06;;;;;;;23.10;5.60;;;;;;;-5.60;61.48;146285.84;1733433;80;21592;-59
2021/12/23 11:52:35;;;;;;;17.13;4.43;;;;;;;-5.59;61.63;146288.39;1737088;80;21209;-59
2021/12/23 11:55:02;;;;;;;24.27;7.50;;;;;;;-5.53;61.60;146302.44;1734447;81;21109;-59
2021/12/23 11:57:35;;;;;;;23.93;7.23;;;;;;;-5.50;61.28;146311.44;1737422;80;21068;-59
2021/12/23 12:00:14;;;;;;;9.17;4.00;;;;;;;-5.53;61.05;146303.75;1737467;80;21609;-59
2021/12/23 12:02:33;;;;;;;17.77;5.43;;;;;;;-5.60;60.45;146285.84;1731240;82;21087;-62
2021/12/23 12:05:05;;;;;;;12.80;4.80;;;;;;;-5.67;60.73;146267.87;1733146;81;21820;-61
2021/12/23 12:10:22;;;;;;;9.27;4.30;;;;;;;-5.64;61.00;146275.55;1768492;79;21939;-61
2021/12/23 12:13:05;;;;;;;35.10;8.03;;;;;;;-5.64;61.13;146275.55;1761985;79;21592;-60
2021/12/23 12:15:43;;;;;;;17.47;5.70;;;;;;;-5.61;61.10;146283.28;1733733;81;21585;-61
2021/12/23 12:18:12;;;;;;;11.67;5.00;;;;;;;-5.61;61.08;146284.53;1720609;81;21146;-62
2021/12/23 12:20:47;;;;;;;14.30;4.93;;;;;;;-5.57;61.08;146293.52;1748270;79;21033;-61
2021/12/23 12:23:35;;;;;;;23.35;7.00;;;;;;;-5.56;60.91;146296.06;1737574;80;21131;-61
2021/12/23 12:26:09;;;;;;;9.97;3.90;;;;;;;-5.56;60.64;146294.77;1739422;81;21053;-58
2021/12/23 12:28:43;;;;;;;10.03;4.43;;;;;;;-5.57;60.44;146293.52;1760748;80;21042;-60
2021/12/23 12:31:19;;;;;;;10.87;4.13;;;;;;;-5.62;60.55;146280.72;1736757;80;21127;-60